Aérodrome :
LOGIN :

S'inscrire | Disclaimer

   EN    FR    IT 

 










Légende :    VFR   VFR Marginal   IFR   IFR Intensif   IFR Très Intensif
Visi : 
Plafond : 
>= 8 km
>= 3000ft
5 à 8 km
1000 à 3000 ft
1500m à 5 km
500 à 1000 ft
800 à 1500m
200 à 500 ft
< 800m
< 200 ft
Symboles :   Orages  Brouillard  Fortes neiges  Fortes précipitations  Vent > 20 kt
SIGMETs :   Divers  Orages  Givrage  Turbulence  Onde Orograph.  Cendres Volcan.







- Altitude de l'aérodrome : 1 ft
- Voir les cartes d'approche


EGCK - Caernarfon

DERNIER METAR :
  • 141720Z AUTO 22009KT 9999 OVC034/// 19/16 Q1016

METARs EXPIRÉS :
  • 141650Z 22011KT 9999 FEW020 OVC032 19/16 Q1016
  • 141620Z 23012KT 9999 OVC032 19/15 Q1016
  • 141550Z 22009KT 9999 FEW030 BKN040 20/16 Q1016
  • 141520Z 22010KT 9999 SCT030 BKN050 20/16 Q1015
  • 141450Z 22010KT 9999 BKN030 OVC040 20/16 Q1016

TAF TAF EGCK
Valide du 14 à 15h jusqu'au 15 à 00h UTC


141359Z 1415/1424 24012KT 9999 FEW015 SCT030
Pas de NOTAMs connus pour ce terrain.



MET'MAP, la Météo Aéronautique d'un coup d'oeil ! - Copyright ORBIFLY Décembre 2007 - Disclaimer

ORBIFLY MET'MAP TEAM :

Programmation & Développement : Alexandra Zaïnal
Conception & Développement : Baudouin d'Aumeries
Co-Programmation & Développement : Marc-Olivier Méhu
Soutien technique & logistique : Manuel Goepfert

Contact : metmap@orbifly.com




SOURCES & CREDITS :

   NOAA